Time;durP1;ratioP1;P1;durP2;ratioP2;P2;SDS_P1;SDS_P2;PMS_P1;PMS_P2;Temp;Humidity;BMP_temperature;BMP_pressure;BME280_temperature;BME280_humidity;BME280_pressure;Samples;Min_cycle;Max_cycle;Signal;HPM_P1;HPM_P2
2021/12/09 00:00:58;;;;;;;;;;;23.50;39.90;;;;;;5123015;27;19907;-85
2021/12/09 00:03:28;;;;;;;;;;;23.50;39.90;;;;;;5142009;27;19915;-84
2021/12/09 00:05:55;;;;;;;;;;;23.40;39.90;;;;;;5123068;27;19908;-83
2021/12/09 00:08:21;;;;;;;;;;;23.40;39.90;;;;;;5123247;27;19907;-83
2021/12/09 00:10:47;;;;;;;;;;;23.40;40.00;;;;;;5140033;27;19911;-85
2021/12/09 00:13:12;;;;;;;;;;;23.40;40.00;;;;;;5139905;27;19914;-84
2021/12/09 00:15:40;;;;;;;;;;;23.40;40.10;;;;;;5139758;27;19911;-84
2021/12/09 00:18:05;;;;;;;;;;;23.30;40.10;;;;;;5122751;27;20343;-82
2021/12/09 00:20:31;;;;;;;;;;;23.30;40.10;;;;;;5122505;27;19926;-86
2021/12/09 00:22:56;;;;;;;;;;;23.30;40.10;;;;;;5122522;27;19915;-86
2021/12/09 00:25:22;;;;;;;;;;;23.20;40.10;;;;;;5140220;27;19907;-84
2021/12/09 00:27:48;;;;;;;;;;;23.20;40.10;;;;;;5122427;27;19910;-84
2021/12/09 00:30:13;;;;;;;;;;;23.20;40.20;;;;;;5122660;27;19936;-82
2021/12/09 00:32:41;;;;;;;;;;;23.20;40.20;;;;;;5121634;27;19915;-83
2021/12/09 00:35:07;;;;;;;;;;;23.20;40.30;;;;;;5139457;27;19949;-81
2021/12/09 00:39:58;;;;;;;;;;;23.10;40.30;;;;;;5140160;27;20394;-84
2021/12/09 00:42:24;;;;;;;;;;;23.10;40.30;;;;;;5139559;27;19907;-85
2021/12/09 00:44:50;;;;;;;;;;;23.10;40.40;;;;;;5139859;27;19907;-84
2021/12/09 00:47:18;;;;;;;;;;;23.10;40.40;;;;;;5139546;27;19913;-83
2021/12/09 00:49:43;;;;;;;;;;;23.10;40.60;;;;;;5122529;27;20356;-82
2021/12/09 00:52:09;;;;;;;;;;;23.10;40.40;;;;;;5122240;27;19918;-83
2021/12/09 00:54:35;;;;;;;;;;;23.10;40.40;;;;;;5122280;27;19911;-87
2021/12/09 00:57:03;;;;;;;;;;;23.00;40.40;;;;;;5139620;27;20031;-84
2021/12/09 00:59:31;;;;;;;;;;;23.00;40.40;;;;;;5122822;27;19988;-84
2021/12/09 01:01:58;;;;;;;;;;;23.00;40.50;;;;;;5122262;27;19907;-82
2021/12/09 01:04:24;;;;;;;;;;;23.00;40.50;;;;;;5122600;27;19913;-85
2021/12/09 01:06:52;;;;;;;;;;;23.00;41.10;;;;;;5157325;27;19907;-86
2021/12/09 01:09:20;;;;;;;;;;;23.00;40.60;;;;;;5122365;27;19915;-88
2021/12/09 01:11:50;;;;;;;;;;;23.00;40.90;;;;;;5122138;27;19908;-85
2021/12/09 01:14:18;;;;;;;;;;;23.00;41.00;;;;;;5139614;27;19908;-83
2021/12/09 01:16:46;;;;;;;;;;;23.10;40.90;;;;;;5140226;27;19907;-82
2021/12/09 01:19:12;;;;;;;;;;;23.10;40.70;;;;;;5122173;27;19907;-89
2021/12/09 01:21:37;;;;;;;;;;;23.20;40.70;;;;;;5139373;27;20359;-85
2021/12/09 01:24:03;;;;;;;;;;;23.20;40.60;;;;;;5121761;27;20374;-85
2021/12/09 01:26:29;;;;;;;;;;;23.20;40.50;;;;;;5139453;27;19960;-87
2021/12/09 01:29:01;;;;;;;;;;;23.20;40.50;;;;;;5122657;27;19994;-88
2021/12/09 01:31:33;;;;;;;;;;;23.20;40.40;;;;;;5123171;27;19918;-86
2021/12/09 01:34:04;;;;;;;;;;;23.20;40.40;;;;;;5123445;27;20391;-84
2021/12/09 01:36:30;;;;;;;;;;;23.20;40.40;;;;;;5122887;27;19908;-86
2021/12/09 01:38:59;;;;;;;;;;;23.30;40.40;;;;;;5122255;27;19907;-86
2021/12/09 01:41:25;;;;;;;;;;;23.30;40.40;;;;;;5122197;27;19998;-87
2021/12/09 01:43:50;;;;;;;;;;;23.30;40.30;;;;;;5140790;27;19946;-87
2021/12/09 01:46:16;;;;;;;;;;;23.30;40.30;;;;;;5142918;27;19950;-86
2021/12/09 01:48:42;;;;;;;;;;;23.30;40.30;;;;;;5125753;27;19915;-84
2021/12/09 01:51:08;;;;;;;;;;;23.30;40.30;;;;;;5125570;27;19915;-82
2021/12/09 01:53:36;;;;;;;;;;;23.30;40.30;;;;;;5125784;27;20002;-87
2021/12/09 01:56:02;;;;;;;;;;;23.30;40.50;;;;;;5125426;27;19918;-84
2021/12/09 01:58:30;;;;;;;;;;;23.30;40.90;;;;;;5125677;27;20002;-84
2021/12/09 02:00:56;;;;;;;;;;;23.30;40.90;;;;;;5125707;27;19911;-85
2021/12/09 02:03:21;;;;;;;;;;;23.30;41.10;;;;;;5142872;27;20309;-83
2021/12/09 02:05:47;;;;;;;;;;;23.30;41.20;;;;;;5142562;27;20006;-88
2021/12/09 02:08:13;;;;;;;;;;;23.20;41.50;;;;;;5125185;27;20391;-84
2021/12/09 02:10:41;;;;;;;;;;;23.20;41.90;;;;;;5125278;27;19915;-82
2021/12/09 02:13:07;;;;;;;;;;;23.20;42.10;;;;;;5142730;27;19907;-82
2021/12/09 02:15:36;;;;;;;;;;;23.20;42.30;;;;;;5124925;27;20248;-83
2021/12/09 02:18:05;;;;;;;;;;;23.30;42.40;;;;;;5142462;27;19938;-85
2021/12/09 02:20:34;;;;;;;;;;;23.20;42.50;;;;;;5124527;27;20048;-86
2021/12/09 02:23:00;;;;;;;;;;;23.20;42.60;;;;;;5124908;27;19997;-84
2021/12/09 02:25:26;;;;;;;;;;;23.20;42.60;;;;;;5142412;27;19950;-81
2021/12/09 02:27:51;;;;;;;;;;;23.20;42.70;;;;;;5142181;27;19907;-83
2021/12/09 02:30:19;;;;;;;;;;;23.20;42.70;;;;;;5124345;27;19915;-86
2021/12/09 02:32:47;;;;;;;;;;;23.20;42.80;;;;;;5124953;27;19907;-85
2021/12/09 02:35:13;;;;;;;;;;;23.20;42.80;;;;;;5142151;27;19907;-82
2021/12/09 02:37:41;;;;;;;;;;;23.20;42.90;;;;;;5141500;27;20288;-83
2021/12/09 02:40:07;;;;;;;;;;;23.20;42.80;;;;;;5124782;27;20273;-84
2021/12/09 02:42:34;;;;;;;;;;;23.20;42.80;;;;;;5124429;27;19907;-83
2021/12/09 02:45:02;;;;;;;;;;;23.20;42.80;;;;;;5125891;27;19907;-86
2021/12/09 02:47:27;;;;;;;;;;;23.20;42.80;;;;;;5125210;27;19907;-86
2021/12/09 02:49:55;;;;;;;;;;;23.20;42.80;;;;;;5141820;27;19922;-86
2021/12/09 02:52:23;;;;;;;;;;;23.20;42.80;;;;;;5124379;27;19923;-85
2021/12/09 02:54:51;;;;;;;;;;;23.20;42.70;;;;;;5141140;27;19911;-87
2021/12/09 02:57:19;;;;;;;;;;;23.20;42.70;;;;;;5124290;27;20001;-87
2021/12/09 02:59:47;;;;;;;;;;;23.20;42.60;;;;;;5142225;27;19907;-85
2021/12/09 03:02:12;;;;;;;;;;;23.20;42.60;;;;;;5124660;27;20017;-87
2021/12/09 03:04:48;;;;;;;;;;;23.20;42.60;;;;;;5123900;27;20055;-85
2021/12/09 03:07:15;;;;;;;;;;;23.20;42.60;;;;;;5125147;27;19906;-85
2021/12/09 03:09:51;;;;;;;;;;;23.20;42.60;;;;;;5123855;27;19911;-85
2021/12/09 03:12:20;;;;;;;;;;;23.20;42.60;;;;;;5142408;27;19907;-89
2021/12/09 03:14:46;;;;;;;;;;;23.20;42.60;;;;;;5123953;27;19967;-87
2021/12/09 03:17:11;;;;;;;;;;;23.20;42.60;;;;;;5140957;27;19915;-86
2021/12/09 03:19:37;;;;;;;;;;;23.20;42.60;;;;;;5140909;27;20347;-87
2021/12/09 03:22:05;;;;;;;;;;;23.20;42.50;;;;;;5124169;27;19917;-87
2021/12/09 03:24:30;;;;;;;;;;;23.20;42.60;;;;;;5141038;27;19954;-87
2021/12/09 03:26:56;;;;;;;;;;;23.10;42.60;;;;;;5123824;27;19907;-86
2021/12/09 03:29:27;;;;;;;;;;;23.10;42.60;;;;;;5123471;27;19915;-83
2021/12/09 03:31:55;;;;;;;;;;;23.10;42.50;;;;;;5123977;27;19962;-85
2021/12/09 03:34:24;;;;;;;;;;;23.10;42.50;;;;;;5141116;27;19907;-86
2021/12/09 03:36:52;;;;;;;;;;;23.10;42.50;;;;;;5123994;27;20301;-88
2021/12/09 03:39:19;;;;;;;;;;;23.10;42.50;;;;;;5123525;27;19907;-89
2021/12/09 03:41:45;;;;;;;;;;;23.10;42.40;;;;;;5141447;27;19911;-87
2021/12/09 03:44:11;;;;;;;;;;;23.10;42.40;;;;;;5126112;27;19936;-88
2021/12/09 03:46:36;;;;;;;;;;;23.10;42.40;;;;;;5151209;27;19914;-86
2021/12/09 03:49:02;;;;;;;;;;;23.10;42.40;;;;;;5132142;27;19907;-90
2021/12/09 03:51:27;;;;;;;;;;;23.10;42.30;;;;;;5123354;27;19907;-86
2021/12/09 03:53:55;;;;;;;;;;;23.20;42.30;;;;;;5123692;27;20247;-85
2021/12/09 03:56:23;;;;;;;;;;;23.10;42.20;;;;;;5124028;27;19907;-86
2021/12/09 03:58:49;;;;;;;;;;;23.10;42.20;;;;;;5123614;27;19919;-87
2021/12/09 04:01:17;;;;;;;;;;;23.10;42.20;;;;;;5123023;27;20380;-87
2021/12/09 04:03:42;;;;;;;;;;;23.10;42.20;;;;;;5140485;27;20347;-87
2021/12/09 04:06:08;;;;;;;;;;;23.10;42.20;;;;;;5122606;27;20022;-88
2021/12/09 04:08:33;;;;;;;;;;;23.10;42.10;;;;;;5140058;27;19907;-87
2021/12/09 04:11:01;;;;;;;;;;;23.10;42.00;;;;;;5122931;27;20013;-84
2021/12/09 04:13:28;;;;;;;;;;;23.20;42.10;;;;;;5122987;27;19965;-86
2021/12/09 04:15:54;;;;;;;;;;;23.10;42.00;;;;;;5140372;27;19915;-85
2021/12/09 04:18:22;;;;;;;;;;;23.20;42.00;;;;;;5123317;27;19907;-84
2021/12/09 04:20:49;;;;;;;;;;;23.20;42.00;;;;;;5122677;27;20361;-84
2021/12/09 04:23:14;;;;;;;;;;;23.20;41.90;;;;;;5140204;27;19906;-84
2021/12/09 04:25:40;;;;;;;;;;;23.20;41.90;;;;;;5122793;27;19907;-85
2021/12/09 04:28:05;;;;;;;;;;;23.10;41.90;;;;;;5122520;27;20255;-85
2021/12/09 04:30:34;;;;;;;;;;;23.10;41.90;;;;;;5122673;27;19926;-83
2021/12/09 04:32:59;;;;;;;;;;;23.10;41.90;;;;;;5140357;27;19929;-85
2021/12/09 04:35:30;;;;;;;;;;;23.10;41.80;;;;;;5122646;27;20311;-86
2021/12/09 04:38:00;;;;;;;;;;;23.20;41.80;;;;;;5122761;27;19967;-87
2021/12/09 04:40:28;;;;;;;;;;;23.20;41.70;;;;;;5123071;27;19907;-86
2021/12/09 04:42:56;;;;;;;;;;;23.10;41.70;;;;;;5139976;27;19907;-88
2021/12/09 04:45:24;;;;;;;;;;;23.10;41.80;;;;;;5122601;27;19918;-86
2021/12/09 04:47:52;;;;;;;;;;;23.20;41.70;;;;;;5122428;27;19964;-86
2021/12/09 04:50:20;;;;;;;;;;;23.20;41.70;;;;;;5140079;27;19911;-85
2021/12/09 04:52:50;;;;;;;;;;;23.20;41.70;;;;;;5122280;27;20371;-86
2021/12/09 04:55:16;;;;;;;;;;;23.20;41.60;;;;;;5139648;27;19907;-84
2021/12/09 04:57:43;;;;;;;;;;;23.20;41.60;;;;;;5122279;27;19959;-87
2021/12/09 05:00:12;;;;;;;;;;;23.20;41.50;;;;;;5139431;27;19915;-85
2021/12/09 05:05:21;;;;;;;;;;;23.20;41.50;;;;;;5141740;27;19915;-86
2021/12/09 05:07:49;;;;;;;;;;;23.10;41.60;;;;;;5139175;27;19908;-87
2021/12/09 05:10:15;;;;;;;;;;;23.10;41.60;;;;;;5122012;27;19936;-88
2021/12/09 05:12:41;;;;;;;;;;;23.10;41.60;;;;;;5122020;27;19907;-90
2021/12/09 05:15:10;;;;;;;;;;;23.10;41.50;;;;;;5121666;27;19918;-85
2021/12/09 05:17:35;;;;;;;;;;;23.10;41.50;;;;;;5121832;27;19907;-86
2021/12/09 05:20:01;;;;;;;;;;;23.10;41.40;;;;;;5125973;27;19929;-85
2021/12/09 05:22:29;;;;;;;;;;;23.10;41.50;;;;;;5125932;27;20255;-87
2021/12/09 05:24:57;;;;;;;;;;;23.10;41.40;;;;;;5125641;27;19907;-88
2021/12/09 05:27:22;;;;;;;;;;;23.10;41.40;;;;;;5142915;27;19907;-86
2021/12/09 05:30:03;;;;;;;;;;;23.20;41.40;;;;;;5125602;27;20303;-86
2021/12/09 05:32:30;;;;;;;;;;;23.20;41.40;;;;;;5127492;27;19911;-88
2021/12/09 05:34:56;;;;;;;;;;;23.20;41.30;;;;;;5143152;27;19907;-84
2021/12/09 05:37:22;;;;;;;;;;;23.20;41.30;;;;;;5160880;27;20021;-82
2021/12/09 05:39:48;;;;;;;;;;;23.20;41.30;;;;;;5125569;27;19907;-86
2021/12/09 05:42:14;;;;;;;;;;;23.20;41.30;;;;;;5142615;27;19955;-88
2021/12/09 05:44:42;;;;;;;;;;;23.20;41.30;;;;;;5142526;27;20339;-83
2021/12/09 05:47:07;;;;;;;;;;;23.10;41.20;;;;;;5125371;27;19960;-87
2021/12/09 05:49:33;;;;;;;;;;;23.20;41.30;;;;;;5125167;27;20007;-87
2021/12/09 05:51:59;;;;;;;;;;;23.20;41.30;;;;;;5125412;27;19911;-87
2021/12/09 05:54:29;;;;;;;;;;;23.20;41.30;;;;;;5125784;27;19918;-86
2021/12/09 05:56:55;;;;;;;;;;;23.10;41.20;;;;;;5126028;27;19907;-83
2021/12/09 05:59:20;;;;;;;;;;;23.20;41.20;;;;;;5142787;27;19961;-87
2021/12/09 06:01:48;;;;;;;;;;;23.10;41.20;;;;;;5142274;27;20006;-85
2021/12/09 06:04:14;;;;;;;;;;;23.20;41.20;;;;;;5124812;27;19916;-85
2021/12/09 06:06:39;;;;;;;;;;;23.10;41.20;;;;;;5142104;27;20347;-84
2021/12/09 06:09:05;;;;;;;;;;;23.20;41.20;;;;;;5141920;27;20240;-84
2021/12/09 06:11:31;;;;;;;;;;;23.20;41.20;;;;;;5141869;27;20380;-84
2021/12/09 06:13:56;;;;;;;;;;;23.10;41.10;;;;;;5124512;27;19907;-86
2021/12/09 06:16:24;;;;;;;;;;;23.20;41.20;;;;;;5124973;27;20005;-89
2021/12/09 06:18:50;;;;;;;;;;;23.20;41.20;;;;;;5125434;27;20319;-89
2021/12/09 06:21:19;;;;;;;;;;;23.10;41.10;;;;;;5124961;27;19915;-87
2021/12/09 06:23:45;;;;;;;;;;;23.10;41.20;;;;;;5125311;27;20336;-87
2021/12/09 06:26:10;;;;;;;;;;;23.10;41.20;;;;;;5125429;27;19907;-88
2021/12/09 06:28:38;;;;;;;;;;;23.10;41.20;;;;;;5125748;27;20235;-89
2021/12/09 06:31:04;;;;;;;;;;;23.10;41.10;;;;;;5123971;27;19915;-88
2021/12/09 06:33:32;;;;;;;;;;;23.10;41.00;;;;;;5142315;27;19917;-87
2021/12/09 06:35:58;;;;;;;;;;;23.10;41.00;;;;;;5124912;27;20006;-87
2021/12/09 06:38:23;;;;;;;;;;;23.10;41.00;;;;;;5124946;27;19931;-90
2021/12/09 06:40:49;;;;;;;;;;;23.10;41.00;;;;;;5124819;27;19960;-88
2021/12/09 06:43:15;;;;;;;;;;;23.10;41.00;;;;;;5142051;27;20020;-89
2021/12/09 06:45:41;;;;;;;;;;;23.20;41.00;;;;;;5141710;27;19918;-85
2021/12/09 06:48:06;;;;;;;;;;;23.20;41.00;;;;;;5124289;27;19907;-85
2021/12/09 06:50:32;;;;;;;;;;;23.20;40.90;;;;;;5124753;27;19911;-89
2021/12/09 06:52:57;;;;;;;;;;;23.10;40.90;;;;;;5141369;27;19907;-89
2021/12/09 06:55:25;;;;;;;;;;;23.10;40.90;;;;;;5123979;27;20008;-86
2021/12/09 06:57:51;;;;;;;;;;;23.20;40.90;;;;;;5124537;27;19915;-85
2021/12/09 07:00:19;;;;;;;;;;;23.10;40.90;;;;;;5124082;27;19914;-86
2021/12/09 07:02:50;;;;;;;;;;;23.10;40.90;;;;;;5124262;27;20372;-84
2021/12/09 07:05:18;;;;;;;;;;;23.10;40.90;;;;;;5124543;27;19911;-85
2021/12/09 07:07:46;;;;;;;;;;;23.10;40.90;;;;;;5124119;27;20347;-88
2021/12/09 07:10:12;;;;;;;;;;;23.20;40.90;;;;;;5124537;27;19911;-87
2021/12/09 07:12:38;;;;;;;;;;;23.20;40.80;;;;;;5124059;27;19959;-85
2021/12/09 07:15:04;;;;;;;;;;;23.20;40.80;;;;;;5123916;27;19990;-87
2021/12/09 07:17:30;;;;;;;;;;;23.20;40.80;;;;;;5123908;27;19979;-87
2021/12/09 07:19:58;;;;;;;;;;;23.20;40.80;;;;;;5122918;27;20331;-85
2021/12/09 07:22:23;;;;;;;;;;;23.20;40.80;;;;;;5123592;27;19961;-85
2021/12/09 07:24:54;;;;;;;;;;;23.10;40.80;;;;;;5140693;27;19907;-87
2021/12/09 07:27:22;;;;;;;;;;;23.10;40.90;;;;;;5123798;27;20399;-85
2021/12/09 07:29:47;;;;;;;;;;;23.10;40.80;;;;;;5124422;27;20397;-85
2021/12/09 07:32:13;;;;;;;;;;;23.10;40.80;;;;;;5123612;27;19986;-89
2021/12/09 07:34:39;;;;;;;;;;;23.20;40.80;;;;;;5123252;27;19968;-90
2021/12/09 07:37:05;;;;;;;;;;;23.10;40.80;;;;;;5123409;27;19907;-89
2021/12/09 07:39:31;;;;;;;;;;;23.10;40.80;;;;;;5124322;27;19962;-86
2021/12/09 07:41:57;;;;;;;;;;;23.10;40.70;;;;;;5124342;27;19932;-86
2021/12/09 07:44:23;;;;;;;;;;;23.20;40.70;;;;;;5123404;27;19907;-89
2021/12/09 07:46:48;;;;;;;;;;;23.10;40.80;;;;;;5123752;27;20002;-85
2021/12/09 07:49:17;;;;;;;;;;;23.20;40.80;;;;;;5123340;27;19936;-87
2021/12/09 07:51:42;;;;;;;;;;;23.10;40.70;;;;;;5123426;27;19914;-86
2021/12/09 07:54:08;;;;;;;;;;;23.10;40.70;;;;;;5140762;27;19911;-85
2021/12/09 07:56:33;;;;;;;;;;;23.20;40.70;;;;;;5123899;27;19915;-86
2021/12/09 07:58:59;;;;;;;;;;;23.10;40.70;;;;;;5140685;27;19907;-86
2021/12/09 08:01:29;;;;;;;;;;;23.10;40.70;;;;;;5124403;27;19907;-84
2021/12/09 08:03:58;;;;;;;;;;;23.10;40.80;;;;;;5124133;27;19907;-87
2021/12/09 08:06:24;;;;;;;;;;;23.10;40.70;;;;;;5141545;27;19907;-87
2021/12/09 08:08:52;;;;;;;;;;;23.10;40.70;;;;;;5123672;27;20349;-84
2021/12/09 08:11:19;;;;;;;;;;;23.10;40.70;;;;;;5122912;27;20261;-84
2021/12/09 08:13:45;;;;;;;;;;;23.20;40.70;;;;;;5122773;27;20261;-87
2021/12/09 08:16:10;;;;;;;;;;;23.20;40.70;;;;;;5122992;27;19918;-90
2021/12/09 08:18:53;;;;;;;;;;;23.10;40.70;;;;;;5122622;27;19907;-84
2021/12/09 08:21:23;;;;;;;;;;;23.20;40.70;;;;;;5124793;27;19926;-89
2021/12/09 08:23:51;;;;;;;;;;;23.10;40.70;;;;;;5122421;27;19907;-84
2021/12/09 08:26:16;;;;;;;;;;;23.10;40.90;;;;;;5123223;27;20212;-86
2021/12/09 08:28:42;;;;;;;;;;;23.20;40.70;;;;;;5139643;27;20358;-85
2021/12/09 08:31:08;;;;;;;;;;;23.20;40.70;;;;;;5122743;27;19919;-86
2021/12/09 08:33:33;;;;;;;;;;;23.20;40.50;;;;;;5139850;27;20379;-90
2021/12/09 08:35:59;;;;;;;;;;;23.20;40.30;;;;;;5122680;27;20239;-85
2021/12/09 08:38:24;;;;;;;;;;;23.20;40.30;;;;;;5122279;27;20078;-88
2021/12/09 08:40:50;;;;;;;;;;;23.20;40.20;;;;;;5139935;27;19907;-84
2021/12/09 08:43:19;;;;;;;;;;;23.20;41.20;;;;;;5122898;27;20263;-87
2021/12/09 08:45:56;;;;;;;;;;;23.20;41.30;;;;;;5123276;27;19911;-85
2021/12/09 08:48:22;;;;;;;;;;;23.20;41.60;;;;;;5122823;27;19907;-88
2021/12/09 08:50:50;;;;;;;;;;;23.30;41.80;;;;;;5121949;27;19911;-88
2021/12/09 08:53:19;;;;;;;;;;;23.30;42.10;;;;;;5121628;27;19915;-88
2021/12/09 08:55:44;;;;;;;;;;;23.40;42.20;;;;;;5122315;27;19914;-87
2021/12/09 08:58:15;;;;;;;;;;;23.30;42.40;;;;;;5121892;27;19907;-85
2021/12/09 09:00:43;;;;;;;;;;;23.40;42.50;;;;;;5122727;27;20347;-85
2021/12/09 09:03:09;;;;;;;;;;;23.40;42.30;;;;;;5139774;27;19911;-86
2021/12/09 09:05:38;;;;;;;;;;;23.40;41.40;;;;;;5122509;27;19918;-84
2021/12/09 09:08:03;;;;;;;;;;;23.50;40.70;;;;;;5122536;27;20319;-83
2021/12/09 09:10:30;;;;;;;;;;;23.50;40.30;;;;;;5121977;27;19974;-87
2021/12/09 09:12:55;;;;;;;;;;;23.50;40.00;;;;;;5122335;27;19907;-80
2021/12/09 09:15:21;;;;;;;;;;;23.50;40.40;;;;;;5121957;27;20247;-85
2021/12/09 09:17:47;;;;;;;;;;;23.50;39.70;;;;;;5121949;27;19925;-87
2021/12/09 09:20:13;;;;;;;;;;;23.50;39.50;;;;;;5146225;27;19928;-81
2021/12/09 09:22:39;;;;;;;;;;;23.50;39.50;;;;;;5124036;27;20392;-82
2021/12/09 09:25:05;;;;;;;;;;;23.50;39.40;;;;;;5121520;27;19907;-85
2021/12/09 09:27:31;;;;;;;;;;;23.50;39.40;;;;;;5121704;27;19958;-83
2021/12/09 09:29:56;;;;;;;;;;;23.50;39.40;;;;;;5138935;27;19915;-83
2021/12/09 09:32:22;;;;;;;;;;;23.50;39.40;;;;;;5122103;27;19967;-85
2021/12/09 09:34:53;;;;;;;;;;;23.50;39.40;;;;;;5138946;27;19907;-82
2021/12/09 09:37:24;;;;;;;;;;;23.50;39.30;;;;;;5139730;27;20245;-84
2021/12/09 09:39:49;;;;;;;;;;;23.50;39.30;;;;;;5139105;27;19911;-83
2021/12/09 09:44:49;;;;;;;;;;;23.50;39.30;;;;;;5138653;27;20342;-84
2021/12/09 09:47:17;;;;;;;;;;;23.50;39.30;;;;;;5138710;27;20327;-83
2021/12/09 09:49:42;;;;;;;;;;;23.50;39.30;;;;;;5121269;27;19971;-84
2021/12/09 09:52:09;;;;;;;;;;;23.50;39.20;;;;;;5121189;27;20421;-85
2021/12/09 09:54:35;;;;;;;;;;;23.50;39.20;;;;;;5138691;27;20002;-85
2021/12/09 09:57:06;;;;;;;;;;;23.60;39.30;;;;;;5138567;27;19916;-84
2021/12/09 09:59:33;;;;;;;;;;;23.60;39.30;;;;;;5121746;27;19907;-83
2021/12/09 10:01:59;;;;;;;;;;;23.60;39.30;;;;;;5138669;27;20010;-83
2021/12/09 10:07:09;;;;;;;;;;;23.60;39.20;;;;;;5144680;27;19971;-84
2021/12/09 10:09:34;;;;;;;;;;;23.60;39.20;;;;;;5141918;27;19918;-86
2021/12/09 10:12:05;;;;;;;;;;;23.50;39.20;;;;;;5125205;27;19907;-86
2021/12/09 10:14:34;;;;;;;;;;;23.60;39.20;;;;;;5142448;27;19942;-85
2021/12/09 10:17:08;;;;;;;;;;;23.60;39.10;;;;;;5125121;27;19993;-82
2021/12/09 10:19:35;;;;;;;;;;;23.60;39.20;;;;;;5160191;27;19915;-84
2021/12/09 10:22:07;;;;;;;;;;;23.60;39.10;;;;;;5125107;27;20489;-84
2021/12/09 10:24:32;;;;;;;;;;;23.60;39.10;;;;;;5141797;27;19907;-86
2021/12/09 10:27:03;;;;;;;;;;;23.60;39.10;;;;;;5142305;27;19918;-84
2021/12/09 10:29:36;;;;;;;;;;;23.60;39.10;;;;;;5124736;27;19907;-85
2021/12/09 10:32:06;;;;;;;;;;;23.60;39.10;;;;;;5142764;27;19922;-84
2021/12/09 10:34:40;;;;;;;;;;;23.60;39.10;;;;;;5124313;27;19907;-82
2021/12/09 10:37:23;;;;;;;;;;;23.60;39.10;;;;;;5141280;27;19914;-83
2021/12/09 10:39:55;;;;;;;;;;;23.60;39.10;;;;;;5159661;27;19911;-83
2021/12/09 10:42:22;;;;;;;;;;;23.60;39.10;;;;;;5141194;27;19907;-83
2021/12/09 10:44:48;;;;;;;;;;;23.60;39.00;;;;;;5141279;27;19918;-82
2021/12/09 10:47:24;;;;;;;;;;;23.60;39.10;;;;;;5159611;27;19907;-84
2021/12/09 10:49:54;;;;;;;;;;;23.60;39.10;;;;;;5141889;27;19911;-84
2021/12/09 10:52:20;;;;;;;;;;;23.60;39.00;;;;;;5141193;27;20262;-84
2021/12/09 10:54:51;;;;;;;;;;;23.60;39.00;;;;;;5124199;27;20010;-86
2021/12/09 10:57:23;;;;;;;;;;;23.60;39.00;;;;;;5141574;27;19907;-83
2021/12/09 10:59:49;;;;;;;;;;;23.60;39.00;;;;;;5159271;27;19914;-83
2021/12/09 11:02:14;;;;;;;;;;;23.60;39.00;;;;;;5123735;27;20051;-84
2021/12/09 11:04:42;;;;;;;;;;;23.60;38.90;;;;;;5123921;27;19945;-88
2021/12/09 11:07:26;;;;;;;;;;;23.60;39.10;;;;;;5141964;27;19986;-85
2021/12/09 11:10:14;;;;;;;;;;;23.60;40.30;;;;;;5124661;27;19911;-85
2021/12/09 11:12:47;;;;;;;;;;;23.60;40.00;;;;;;5159459;27;19907;-86
2021/12/09 11:15:13;;;;;;;;;;;23.60;39.70;;;;;;5141114;27;19995;-85
2021/12/09 11:17:42;;;;;;;;;;;23.70;42.10;;;;;;5140582;27;19922;-82
2021/12/09 11:20:07;;;;;;;;;;;23.70;44.40;;;;;;5140760;27;19917;-82
2021/12/09 11:22:39;;;;;;;;;;;23.70;46.90;;;;;;5141507;27;19918;-85
2021/12/09 11:25:07;;;;;;;;;;;23.70;48.50;;;;;;5141560;27;19908;-85
2021/12/09 11:27:36;;;;;;;;;;;23.80;49.10;;;;;;5123434;27;19907;-86
2021/12/09 11:30:10;;;;;;;;;;;23.80;49.30;;;;;;5123371;27;19942;-86
2021/12/09 11:35:21;;;;;;;;;;;23.80;49.10;;;;;;5140748;27;19978;-85
2021/12/09 11:37:55;;;;;;;;;;;23.80;49.10;;;;;;5124687;27;19913;-84
2021/12/09 11:43:00;;;;;;;;;;;23.80;48.40;;;;;;5141917;27;20226;-84
2021/12/09 11:45:36;;;;;;;;;;;23.90;48.10;;;;;;5124068;27;19964;-84
2021/12/09 11:48:04;;;;;;;;;;;23.90;47.80;;;;;;5141947;27;20002;-85
2021/12/09 11:50:33;;;;;;;;;;;23.90;47.80;;;;;;5124236;27;19911;-86
2021/12/09 11:53:03;;;;;;;;;;;23.90;47.60;;;;;;5141382;27;19914;-86
2021/12/09 11:56:00;;;;;;;;;;;24.00;47.30;;;;;;5124697;27;20323;-85
2021/12/09 11:58:22;;;;;;;;;;;24.10;47.10;;;;;;5142058;27;19911;-87
2021/12/09 12:07:10;;;;;;;;;;;24.10;46.70;;;;;;5166625;27;20337;-84
2021/12/09 12:12:30;;;;;;;;;;;24.20;46.60;;;;;;5144030;27;19915;-83
2021/12/09 12:15:02;;;;;;;;;;;24.10;46.40;;;;;;5140424;27;19907;-86
2021/12/09 12:17:41;;;;;;;;;;;24.20;46.30;;;;;;5123899;27;19907;-87
2021/12/09 12:20:27;;;;;;;;;;;24.20;46.20;;;;;;5141662;27;20347;-85
2021/12/09 12:28:24;;;;;;;;;;;24.30;45.90;;;;;;5157536;27;20287;-85
2021/12/09 12:33:49;;;;;;;;;;;24.30;45.70;;;;;;5141076;27;19980;-85
2021/12/09 12:39:05;;;;;;;;;;;24.30;45.50;;;;;;5140753;27;19942;-82
2021/12/09 12:41:32;;;;;;;;;;;24.40;45.60;;;;;;5125942;27;19964;-83
2021/12/09 12:44:05;;;;;;;;;;;24.40;45.50;;;;;;5123147;27;20006;-84
2021/12/09 12:52:13;;;;;;;;;;;24.40;45.30;;;;;;5141830;27;19996;-85
2021/12/09 12:57:14;;;;;;;;;;;24.40;45.20;;;;;;5140603;27;20334;-85
2021/12/09 12:59:43;;;;;;;;;;;24.40;45.10;;;;;;5123652;27;19915;-89
2021/12/09 13:07:37;;;;;;;;;;;24.40;44.80;;;;;;5141308;27;19911;-83
2021/12/09 13:13:03;;;;;;;;;;;24.40;44.30;;;;;;5125931;27;19954;-84
2021/12/09 13:15:44;;;;;;;;;;;24.40;44.40;;;;;;5123184;27;19911;-85
2021/12/09 13:18:40;;;;;;;;;;;24.40;44.60;;;;;;5124549;27;20347;-83
2021/12/09 13:21:24;;;;;;;;;;;24.40;44.70;;;;;;5114963;28;19946;-85
2021/12/09 13:24:09;;;;;;;;;;;24.40;45.30;;;;;;5119615;28;20341;-85
2021/12/09 13:26:37;;;;;;;;;;;24.40;44.70;;;;;;5118751;28;19918;-82
2021/12/09 13:29:21;;;;;;;;;;;24.40;44.60;;;;;;5119421;28;19919;-82
2021/12/09 13:34:27;;;;;;;;;;;24.50;44.50;;;;;;5118780;28;19917;-81
2021/12/09 13:37:27;;;;;;;;;;;24.50;44.50;;;;;;5102226;28;19907;-83
2021/12/09 13:40:19;;;;;;;;;;;24.50;44.40;;;;;;5124065;27;19959;-82
2021/12/09 13:48:40;;;;;;;;;;;24.50;44.30;;;;;;5115636;27;19907;-84
2021/12/09 13:51:19;;;;;;;;;;;24.50;44.30;;;;;;5124882;27;19938;-84
2021/12/09 13:54:08;;;;;;;;;;;24.50;43.80;;;;;;5107554;27;19907;-87
2021/12/09 13:56:34;;;;;;;;;;;24.50;43.60;;;;;;5122270;27;19973;-81
2021/12/09 13:59:02;;;;;;;;;;;24.50;43.60;;;;;;5122377;27;19908;-82
2021/12/09 14:01:27;;;;;;;;;;;24.40;43.60;;;;;;5122518;27;19907;-85
2021/12/09 14:03:53;;;;;;;;;;;24.50;44.00;;;;;;5122101;27;19914;-86
2021/12/09 14:06:21;;;;;;;;;;;24.50;44.30;;;;;;5104860;27;19968;-84
2021/12/09 14:08:54;;;;;;;;;;;24.50;44.30;;;;;;5122205;27;19907;-85
2021/12/09 14:11:34;;;;;;;;;;;24.50;44.30;;;;;;5105947;27;19912;-85
2021/12/09 14:14:13;;;;;;;;;;;24.50;44.30;;;;;;5123440;27;19911;-83
2021/12/09 14:16:49;;;;;;;;;;;24.50;44.30;;;;;;5122700;27;19983;-86
2021/12/09 14:21:48;;;;;;;;;;;24.60;44.30;;;;;;5160691;27;19911;-83
2021/12/09 14:24:20;;;;;;;;;;;24.60;44.30;;;;;;5125445;27;19993;-83
2021/12/09 14:27:12;;;;;;;;;;;24.60;44.20;;;;;;5142556;27;19907;-83
2021/12/09 14:29:45;;;;;;;;;;;24.70;44.20;;;;;;5138442;27;19971;-85
2021/12/09 14:32:13;;;;;;;;;;;24.70;44.20;;;;;;5141986;27;19907;-84
2021/12/09 14:34:44;;;;;;;;;;;24.70;44.30;;;;;;5144165;27;19911;-86
2021/12/09 14:37:13;;;;;;;;;;;24.70;44.20;;;;;;5146091;27;19925;-82
2021/12/09 14:39:43;;;;;;;;;;;24.60;44.80;;;;;;5127939;27;19959;-85
2021/12/09 14:42:11;;;;;;;;;;;24.60;44.10;;;;;;5124796;27;19918;-87
2021/12/09 14:44:40;;;;;;;;;;;24.70;44.10;;;;;;5142790;27;20239;-83
2021/12/09 14:47:12;;;;;;;;;;;24.70;44.00;;;;;;5125401;27;20223;-87
2021/12/09 14:49:42;;;;;;;;;;;24.70;43.80;;;;;;5126935;27;19907;-83
2021/12/09 14:52:08;;;;;;;;;;;24.80;43.40;;;;;;5126514;27;19967;-85
2021/12/09 14:54:33;;;;;;;;;;;24.80;43.20;;;;;;5127188;27;19942;-82
2021/12/09 14:57:06;;;;;;;;;;;24.70;43.00;;;;;;5126301;27;20570;-86
2021/12/09 14:59:34;;;;;;;;;;;24.70;43.00;;;;;;5125600;27;19907;-84
2021/12/09 15:02:18;;;;;;;;;;;24.70;43.40;;;;;;5126228;27;19955;-84
2021/12/09 15:04:46;;;;;;;;;;;24.70;43.50;;;;;;5130469;27;19907;-86
2021/12/09 15:07:28;;;;;;;;;;;24.70;43.60;;;;;;5128198;27;19911;-87
2021/12/09 15:10:06;;;;;;;;;;;24.70;43.80;;;;;;5129379;27;19964;-83
2021/12/09 15:12:32;;;;;;;;;;;24.70;43.80;;;;;;5127610;27;19915;-84
2021/12/09 15:15:01;;;;;;;;;;;24.70;43.70;;;;;;5144628;27;19908;-83
2021/12/09 15:17:27;;;;;;;;;;;24.70;43.70;;;;;;5142989;27;19997;-82
2021/12/09 15:19:58;;;;;;;;;;;24.70;43.70;;;;;;5124571;27;19954;-83
2021/12/09 15:22:28;;;;;;;;;;;24.70;43.70;;;;;;5142310;27;19925;-86
2021/12/09 15:24:58;;;;;;;;;;;24.70;43.70;;;;;;5127167;27;19907;-80
2021/12/09 15:27:26;;;;;;;;;;;24.70;43.70;;;;;;5133007;27;19907;-80